sensor_id;sensor_type;location;lat;lon;timestamp;P1;durP1;ratioP1;P2;durP2;ratioP2
37593;SDS011;23441;50.856;6.076;2023-02-15T00:01:34;49.17;;;24.93;;
37593;SDS011;23441;50.856;6.076;2023-02-15T00:04:01;48.83;;;24.92;;
37593;SDS011;23441;50.856;6.076;2023-02-15T00:06:27;46.13;;;23.93;;
37593;SDS011;23441;50.856;6.076;2023-02-15T00:08:53;49.97;;;24.30;;
37593;SDS011;23441;50.856;6.076;2023-02-15T00:11:19;45.70;;;23.67;;
37593;SDS011;23441;50.856;6.076;2023-02-15T00:14:11;48.53;;;24.03;;
37593;SDS011;23441;50.856;6.076;2023-02-15T00:16:39;48.70;;;24.33;;
37593;SDS011;23441;50.856;6.076;2023-02-15T00:19:06;47.83;;;22.70;;
37593;SDS011;23441;50.856;6.076;2023-02-15T00:21:33;49.58;;;24.20;;
37593;SDS011;23441;50.856;6.076;2023-02-15T00:24:01;45.63;;;23.90;;
37593;SDS011;23441;50.856;6.076;2023-02-15T00:26:29;49.37;;;24.40;;
37593;SDS011;23441;50.856;6.076;2023-02-15T00:28:55;50.90;;;24.37;;
37593;SDS011;23441;50.856;6.076;2023-02-15T00:31:24;48.85;;;25.58;;
37593;SDS011;23441;50.856;6.076;2023-02-15T00:33:49;50.10;;;25.07;;
37593;SDS011;23441;50.856;6.076;2023-02-15T00:36:15;56.57;;;25.77;;
37593;SDS011;23441;50.856;6.076;2023-02-15T00:38:41;47.23;;;25.23;;
37593;SDS011;23441;50.856;6.076;2023-02-15T00:41:07;53.70;;;24.93;;
37593;SDS011;23441;50.856;6.076;2023-02-15T00:43:33;47.63;;;25.23;;
37593;SDS011;23441;50.856;6.076;2023-02-15T00:46:00;53.07;;;25.80;;
37593;SDS011;23441;50.856;6.076;2023-02-15T00:48:27;50.27;;;24.47;;
37593;SDS011;23441;50.856;6.076;2023-02-15T00:50:54;51.47;;;24.53;;
37593;SDS011;23441;50.856;6.076;2023-02-15T00:53:22;50.90;;;26.07;;
37593;SDS011;23441;50.856;6.076;2023-02-15T00:55:48;53.77;;;27.17;;
37593;SDS011;23441;50.856;6.076;2023-02-15T00:58:14;53.90;;;26.93;;
37593;SDS011;23441;50.856;6.076;2023-02-15T01:00:41;49.70;;;24.30;;
37593;SDS011;23441;50.856;6.076;2023-02-15T01:03:09;48.67;;;25.33;;
37593;SDS011;23441;50.856;6.076;2023-02-15T01:05:35;53.20;;;26.30;;
37593;SDS011;23441;50.856;6.076;2023-02-15T01:08:01;51.07;;;25.53;;
37593;SDS011;23441;50.856;6.076;2023-02-15T01:10:27;54.27;;;26.07;;
37593;SDS011;23441;50.856;6.076;2023-02-15T01:12:53;55.13;;;26.77;;
37593;SDS011;23441;50.856;6.076;2023-02-15T01:15:19;57.40;;;26.57;;
37593;SDS011;23441;50.856;6.076;2023-02-15T01:17:45;55.87;;;27.47;;
37593;SDS011;23441;50.856;6.076;2023-02-15T01:20:19;52.80;;;25.57;;
37593;SDS011;23441;50.856;6.076;2023-02-15T01:22:47;56.35;;;27.95;;
37593;SDS011;23441;50.856;6.076;2023-02-15T01:25:15;62.35;;;27.00;;
37593;SDS011;23441;50.856;6.076;2023-02-15T01:27:41;55.27;;;27.33;;
37593;SDS011;23441;50.856;6.076;2023-02-15T01:30:07;58.35;;;28.95;;
37593;SDS011;23441;50.856;6.076;2023-02-15T01:32:33;60.03;;;28.87;;
37593;SDS011;23441;50.856;6.076;2023-02-15T01:34:59;58.73;;;27.90;;
37593;SDS011;23441;50.856;6.076;2023-02-15T01:37:25;58.73;;;29.37;;
37593;SDS011;23441;50.856;6.076;2023-02-15T01:39:50;59.03;;;29.07;;
37593;SDS011;23441;50.856;6.076;2023-02-15T01:42:26;57.07;;;27.80;;
37593;SDS011;23441;50.856;6.076;2023-02-15T01:44:57;50.83;;;26.20;;
37593;SDS011;23441;50.856;6.076;2023-02-15T01:47:30;58.33;;;26.93;;
37593;SDS011;23441;50.856;6.076;2023-02-15T01:50:13;60.90;;;27.50;;
37593;SDS011;23441;50.856;6.076;2023-02-15T01:52:51;58.07;;;26.97;;
37593;SDS011;23441;50.856;6.076;2023-02-15T01:55:23;55.33;;;26.37;;
37593;SDS011;23441;50.856;6.076;2023-02-15T01:57:53;52.07;;;26.67;;
37593;SDS011;23441;50.856;6.076;2023-02-15T02:00:19;52.90;;;27.47;;
37593;SDS011;23441;50.856;6.076;2023-02-15T02:02:46;60.30;;;29.90;;
37593;SDS011;23441;50.856;6.076;2023-02-15T02:05:16;55.43;;;27.50;;
37593;SDS011;23441;50.856;6.076;2023-02-15T02:07:43;59.77;;;28.90;;
37593;SDS011;23441;50.856;6.076;2023-02-15T02:10:12;58.95;;;28.05;;
37593;SDS011;23441;50.856;6.076;2023-02-15T02:12:40;54.77;;;27.43;;
37593;SDS011;23441;50.856;6.076;2023-02-15T02:15:09;55.88;;;26.60;;
37593;SDS011;23441;50.856;6.076;2023-02-15T02:25:44;52.17;;;27.03;;
37593;SDS011;23441;50.856;6.076;2023-02-15T02:39:37;56.83;;;26.60;;
37593;SDS011;23441;50.856;6.076;2023-02-15T02:42:17;56.90;;;28.40;;
37593;SDS011;23441;50.856;6.076;2023-02-15T02:44:54;53.27;;;26.23;;
37593;SDS011;23441;50.856;6.076;2023-02-15T02:47:53;55.73;;;26.10;;
37593;SDS011;23441;50.856;6.076;2023-02-15T02:50:28;47.73;;;25.87;;
37593;SDS011;23441;50.856;6.076;2023-02-15T02:52:55;56.57;;;26.30;;
37593;SDS011;23441;50.856;6.076;2023-02-15T02:55:25;58.37;;;26.13;;
37593;SDS011;23441;50.856;6.076;2023-02-15T02:58:06;54.50;;;25.60;;
37593;SDS011;23441;50.856;6.076;2023-02-15T03:00:55;58.43;;;27.73;;
37593;SDS011;23441;50.856;6.076;2023-02-15T03:09:25;53.97;;;26.00;;
37593;SDS011;23441;50.856;6.076;2023-02-15T03:11:59;58.47;;;27.57;;
37593;SDS011;23441;50.856;6.076;2023-02-15T03:14:28;63.83;;;26.70;;
37593;SDS011;23441;50.856;6.076;2023-02-15T03:16:54;55.90;;;27.63;;
37593;SDS011;23441;50.856;6.076;2023-02-15T03:19:22;60.93;;;27.83;;
37593;SDS011;23441;50.856;6.076;2023-02-15T03:21:51;59.27;;;28.30;;
37593;SDS011;23441;50.856;6.076;2023-02-15T03:27:06;63.80;;;29.07;;
37593;SDS011;23441;50.856;6.076;2023-02-15T03:29:36;57.70;;;26.70;;
37593;SDS011;23441;50.856;6.076;2023-02-15T03:32:04;54.73;;;28.47;;
37593;SDS011;23441;50.856;6.076;2023-02-15T03:34:34;51.47;;;26.27;;
37593;SDS011;23441;50.856;6.076;2023-02-15T03:37:05;57.87;;;27.10;;
37593;SDS011;23441;50.856;6.076;2023-02-15T03:39:59;52.43;;;27.13;;
37593;SDS011;23441;50.856;6.076;2023-02-15T03:43:14;55.17;;;25.03;;
37593;SDS011;23441;50.856;6.076;2023-02-15T03:45:47;51.90;;;25.27;;
37593;SDS011;23441;50.856;6.076;2023-02-15T03:48:23;52.33;;;25.93;;
37593;SDS011;23441;50.856;6.076;2023-02-15T03:50:55;50.37;;;24.90;;
37593;SDS011;23441;50.856;6.076;2023-02-15T03:53:43;54.03;;;26.27;;
37593;SDS011;23441;50.856;6.076;2023-02-15T03:56:11;51.97;;;25.80;;
37593;SDS011;23441;50.856;6.076;2023-02-15T03:58:37;55.00;;;25.83;;
37593;SDS011;23441;50.856;6.076;2023-02-15T04:01:31;55.80;;;24.87;;
37593;SDS011;23441;50.856;6.076;2023-02-15T04:04:23;50.83;;;25.57;;
37593;SDS011;23441;50.856;6.076;2023-02-15T04:07:04;52.97;;;24.47;;
37593;SDS011;23441;50.856;6.076;2023-02-15T04:09:32;54.43;;;25.07;;
37593;SDS011;23441;50.856;6.076;2023-02-15T04:12:16;50.83;;;25.33;;
37593;SDS011;23441;50.856;6.076;2023-02-15T04:14:42;50.77;;;24.27;;
37593;SDS011;23441;50.856;6.076;2023-02-15T04:17:26;52.83;;;25.07;;
37593;SDS011;23441;50.856;6.076;2023-02-15T04:19:52;49.83;;;25.70;;
37593;SDS011;23441;50.856;6.076;2023-02-15T04:22:36;52.50;;;24.27;;
37593;SDS011;23441;50.856;6.076;2023-02-15T04:25:20;48.53;;;24.03;;
37593;SDS011;23441;50.856;6.076;2023-02-15T04:27:53;47.73;;;25.13;;
37593;SDS011;23441;50.856;6.076;2023-02-15T04:30:20;49.33;;;24.33;;
37593;SDS011;23441;50.856;6.076;2023-02-15T04:32:48;45.07;;;23.23;;
37593;SDS011;23441;50.856;6.076;2023-02-15T04:35:13;49.47;;;25.23;;
37593;SDS011;23441;50.856;6.076;2023-02-15T04:37:40;45.17;;;23.20;;
37593;SDS011;23441;50.856;6.076;2023-02-15T04:40:06;50.03;;;24.47;;
37593;SDS011;23441;50.856;6.076;2023-02-15T04:42:33;49.07;;;24.27;;
37593;SDS011;23441;50.856;6.076;2023-02-15T04:44:59;51.10;;;24.63;;
37593;SDS011;23441;50.856;6.076;2023-02-15T04:47:25;52.77;;;24.17;;
37593;SDS011;23441;50.856;6.076;2023-02-15T04:49:50;51.67;;;24.10;;
37593;SDS011;23441;50.856;6.076;2023-02-15T04:52:16;51.20;;;23.87;;
37593;SDS011;23441;50.856;6.076;2023-02-15T04:54:44;52.50;;;24.57;;
37593;SDS011;23441;50.856;6.076;2023-02-15T04:57:10;49.67;;;22.57;;
37593;SDS011;23441;50.856;6.076;2023-02-15T04:59:37;47.30;;;23.43;;
37593;SDS011;23441;50.856;6.076;2023-02-15T05:02:02;43.80;;;22.63;;
37593;SDS011;23441;50.856;6.076;2023-02-15T05:04:28;44.57;;;21.70;;
37593;SDS011;23441;50.856;6.076;2023-02-15T05:06:54;47.23;;;22.83;;
37593;SDS011;23441;50.856;6.076;2023-02-15T05:09:20;45.13;;;22.17;;
37593;SDS011;23441;50.856;6.076;2023-02-15T05:11:45;46.87;;;23.40;;
37593;SDS011;23441;50.856;6.076;2023-02-15T05:14:11;50.90;;;22.50;;
37593;SDS011;23441;50.856;6.076;2023-02-15T05:16:37;46.50;;;22.07;;
37593;SDS011;23441;50.856;6.076;2023-02-15T05:19:02;45.10;;;22.33;;
37593;SDS011;23441;50.856;6.076;2023-02-15T05:21:28;48.20;;;22.67;;
37593;SDS011;23441;50.856;6.076;2023-02-15T05:23:54;44.80;;;22.33;;
37593;SDS011;23441;50.856;6.076;2023-02-15T05:26:22;45.53;;;21.87;;
37593;SDS011;23441;50.856;6.076;2023-02-15T05:29:07;43.07;;;20.37;;
37593;SDS011;23441;50.856;6.076;2023-02-15T05:31:34;38.53;;;20.00;;
37593;SDS011;23441;50.856;6.076;2023-02-15T05:34:00;40.37;;;20.03;;
37593;SDS011;23441;50.856;6.076;2023-02-15T05:36:26;45.53;;;22.20;;
37593;SDS011;23441;50.856;6.076;2023-02-15T05:38:53;41.43;;;19.83;;
37593;SDS011;23441;50.856;6.076;2023-02-15T05:41:18;37.13;;;20.57;;
37593;SDS011;23441;50.856;6.076;2023-02-15T05:43:44;45.20;;;20.77;;
37593;SDS011;23441;50.856;6.076;2023-02-15T05:46:09;38.80;;;19.13;;
37593;SDS011;23441;50.856;6.076;2023-02-15T05:48:36;46.53;;;20.57;;
37593;SDS011;23441;50.856;6.076;2023-02-15T05:51:06;41.07;;;21.40;;
37593;SDS011;23441;50.856;6.076;2023-02-15T05:53:38;37.53;;;20.03;;
37593;SDS011;23441;50.856;6.076;2023-02-15T05:56:05;44.53;;;20.40;;
37593;SDS011;23441;50.856;6.076;2023-02-15T05:58:36;38.73;;;20.13;;
37593;SDS011;23441;50.856;6.076;2023-02-15T06:01:14;46.97;;;20.70;;
37593;SDS011;23441;50.856;6.076;2023-02-15T06:03:47;40.17;;;20.30;;
37593;SDS011;23441;50.856;6.076;2023-02-15T06:06:12;43.53;;;20.80;;
37593;SDS011;23441;50.856;6.076;2023-02-15T06:08:38;42.73;;;21.00;;
37593;SDS011;23441;50.856;6.076;2023-02-15T06:11:04;42.30;;;19.93;;
37593;SDS011;23441;50.856;6.076;2023-02-15T06:13:30;38.13;;;19.07;;
37593;SDS011;23441;50.856;6.076;2023-02-15T06:15:56;42.30;;;20.10;;
37593;SDS011;23441;50.856;6.076;2023-02-15T06:18:21;37.87;;;18.70;;
37593;SDS011;23441;50.856;6.076;2023-02-15T06:20:47;42.80;;;20.60;;
37593;SDS011;23441;50.856;6.076;2023-02-15T06:23:13;37.50;;;19.47;;
37593;SDS011;23441;50.856;6.076;2023-02-15T06:25:39;40.67;;;19.47;;
37593;SDS011;23441;50.856;6.076;2023-02-15T06:28:05;36.93;;;18.70;;
37593;SDS011;23441;50.856;6.076;2023-02-15T06:30:31;36.73;;;17.63;;
37593;SDS011;23441;50.856;6.076;2023-02-15T06:32:56;40.60;;;18.60;;
37593;SDS011;23441;50.856;6.076;2023-02-15T06:35:22;30.77;;;16.33;;
37593;SDS011;23441;50.856;6.076;2023-02-15T06:37:48;38.20;;;18.13;;
37593;SDS011;23441;50.856;6.076;2023-02-15T06:40:13;35.87;;;16.77;;
37593;SDS011;23441;50.856;6.076;2023-02-15T06:42:40;34.90;;;17.87;;
37593;SDS011;23441;50.856;6.076;2023-02-15T06:45:07;37.70;;;17.43;;
37593;SDS011;23441;50.856;6.076;2023-02-15T06:47:34;37.37;;;18.77;;
37593;SDS011;23441;50.856;6.076;2023-02-15T06:49:59;38.03;;;18.70;;
37593;SDS011;23441;50.856;6.076;2023-02-15T06:52:25;38.43;;;18.80;;
37593;SDS011;23441;50.856;6.076;2023-02-15T06:54:51;38.93;;;17.93;;
37593;SDS011;23441;50.856;6.076;2023-02-15T06:57:16;39.57;;;18.70;;
37593;SDS011;23441;50.856;6.076;2023-02-15T06:59:42;32.80;;;16.80;;
37593;SDS011;23441;50.856;6.076;2023-02-15T07:02:08;33.97;;;17.20;;
37593;SDS011;23441;50.856;6.076;2023-02-15T07:04:36;35.07;;;17.70;;
37593;SDS011;23441;50.856;6.076;2023-02-15T07:07:02;37.57;;;17.43;;
37593;SDS011;23441;50.856;6.076;2023-02-15T07:09:28;35.30;;;17.90;;
37593;SDS011;23441;50.856;6.076;2023-02-15T07:11:54;37.67;;;17.80;;
37593;SDS011;23441;50.856;6.076;2023-02-15T07:14:38;32.77;;;17.03;;
37593;SDS011;23441;50.856;6.076;2023-02-15T07:17:05;33.20;;;16.63;;
37593;SDS011;23441;50.856;6.076;2023-02-15T07:19:31;35.83;;;16.90;;
37593;SDS011;23441;50.856;6.076;2023-02-15T07:21:56;33.47;;;17.13;;
37593;SDS011;23441;50.856;6.076;2023-02-15T07:24:22;35.73;;;17.33;;
37593;SDS011;23441;50.856;6.076;2023-02-15T07:26:48;29.77;;;16.13;;
37593;SDS011;23441;50.856;6.076;2023-02-15T07:29:14;30.40;;;17.27;;
37593;SDS011;23441;50.856;6.076;2023-02-15T07:31:40;32.33;;;16.67;;
37593;SDS011;23441;50.856;6.076;2023-02-15T07:34:08;32.07;;;17.30;;
37593;SDS011;23441;50.856;6.076;2023-02-15T07:36:33;35.37;;;16.50;;
37593;SDS011;23441;50.856;6.076;2023-02-15T07:38:59;32.90;;;16.67;;
37593;SDS011;23441;50.856;6.076;2023-02-15T07:41:25;33.73;;;16.23;;
37593;SDS011;23441;50.856;6.076;2023-02-15T07:43:50;31.23;;;15.20;;
37593;SDS011;23441;50.856;6.076;2023-02-15T07:46:16;34.17;;;15.90;;
37593;SDS011;23441;50.856;6.076;2023-02-15T07:48:43;32.43;;;16.60;;
37593;SDS011;23441;50.856;6.076;2023-02-15T07:51:10;30.57;;;15.50;;
37593;SDS011;23441;50.856;6.076;2023-02-15T07:53:37;30.63;;;16.27;;
37593;SDS011;23441;50.856;6.076;2023-02-15T07:56:05;25.83;;;14.50;;
37593;SDS011;23441;50.856;6.076;2023-02-15T07:58:33;29.47;;;14.40;;
37593;SDS011;23441;50.856;6.076;2023-02-15T08:01:21;27.40;;;15.07;;
37593;SDS011;23441;50.856;6.076;2023-02-15T08:03:47;29.83;;;16.03;;
37593;SDS011;23441;50.856;6.076;2023-02-15T08:06:12;27.73;;;15.27;;
37593;SDS011;23441;50.856;6.076;2023-02-15T08:08:39;30.40;;;15.20;;
37593;SDS011;23441;50.856;6.076;2023-02-15T08:18:57;28.77;;;15.50;;
37593;SDS011;23441;50.856;6.076;2023-02-15T08:21:26;27.83;;;14.47;;
37593;SDS011;23441;50.856;6.076;2023-02-15T08:23:54;31.00;;;16.67;;
37593;SDS011;23441;50.856;6.076;2023-02-15T08:26:20;33.23;;;15.97;;
37593;SDS011;23441;50.856;6.076;2023-02-15T08:28:46;31.03;;;15.83;;
37593;SDS011;23441;50.856;6.076;2023-02-15T08:31:14;32.57;;;16.13;;
37593;SDS011;23441;50.856;6.076;2023-02-15T08:33:41;31.08;;;16.38;;
37593;SDS011;23441;50.856;6.076;2023-02-15T08:36:11;29.53;;;16.47;;
37593;SDS011;23441;50.856;6.076;2023-02-15T08:38:39;30.40;;;17.40;;
37593;SDS011;23441;50.856;6.076;2023-02-15T08:43:39;25.55;;;15.02;;
37593;SDS011;23441;50.856;6.076;2023-02-15T08:46:06;27.27;;;15.85;;
37593;SDS011;23441;50.856;6.076;2023-02-15T08:48:31;27.25;;;15.38;;
37593;SDS011;23441;50.856;6.076;2023-02-15T08:50:57;28.98;;;15.50;;
37593;SDS011;23441;50.856;6.076;2023-02-15T08:53:23;24.35;;;15.85;;
37593;SDS011;23441;50.856;6.076;2023-02-15T08:55:55;30.85;;;15.38;;
37593;SDS011;23441;50.856;6.076;2023-02-15T08:58:22;28.75;;;15.93;;
37593;SDS011;23441;50.856;6.076;2023-02-15T09:00:48;28.50;;;15.65;;
37593;SDS011;23441;50.856;6.076;2023-02-15T09:03:14;30.00;;;16.67;;
37593;SDS011;23441;50.856;6.076;2023-02-15T09:05:39;32.20;;;16.35;;
37593;SDS011;23441;50.856;6.076;2023-02-15T09:08:05;28.63;;;16.38;;
37593;SDS011;23441;50.856;6.076;2023-02-15T09:10:31;26.25;;;15.32;;
37593;SDS011;23441;50.856;6.076;2023-02-15T09:12:57;28.38;;;16.27;;
37593;SDS011;23441;50.856;6.076;2023-02-15T09:15:23;28.50;;;15.88;;
37593;SDS011;23441;50.856;6.076;2023-02-15T09:17:48;28.85;;;16.88;;
37593;SDS011;23441;50.856;6.076;2023-02-15T09:20:14;27.13;;;15.25;;
37593;SDS011;23441;50.856;6.076;2023-02-15T09:22:40;25.55;;;13.75;;
37593;SDS011;23441;50.856;6.076;2023-02-15T09:25:06;24.48;;;13.50;;
37593;SDS011;23441;50.856;6.076;2023-02-15T09:27:31;23.95;;;14.55;;
37593;SDS011;23441;50.856;6.076;2023-02-15T09:29:57;23.95;;;13.73;;
37593;SDS011;23441;50.856;6.076;2023-02-15T09:32:23;25.45;;;14.05;;
37593;SDS011;23441;50.856;6.076;2023-02-15T09:34:48;25.92;;;13.32;;
37593;SDS011;23441;50.856;6.076;2023-02-15T09:37:14;20.90;;;12.07;;
37593;SDS011;23441;50.856;6.076;2023-02-15T09:39:42;22.00;;;11.93;;
37593;SDS011;23441;50.856;6.076;2023-02-15T09:42:12;20.98;;;11.23;;
37593;SDS011;23441;50.856;6.076;2023-02-15T09:45:22;23.33;;;12.57;;
37593;SDS011;23441;50.856;6.076;2023-02-15T10:09:18;19.50;;;10.93;;
37593;SDS011;23441;50.856;6.076;2023-02-15T10:28:53;20.52;;;9.60;;
37593;SDS011;23441;50.856;6.076;2023-02-15T10:45:10;18.35;;;9.50;;
37593;SDS011;23441;50.856;6.076;2023-02-15T10:50:45;18.80;;;10.27;;
37593;SDS011;23441;50.856;6.076;2023-02-15T10:53:31;23.23;;;11.05;;
37593;SDS011;23441;50.856;6.076;2023-02-15T11:01:47;21.08;;;11.02;;
37593;SDS011;23441;50.856;6.076;2023-02-15T11:04:32;20.70;;;11.15;;
37593;SDS011;23441;50.856;6.076;2023-02-15T11:07:06;25.17;;;11.40;;
37593;SDS011;23441;50.856;6.076;2023-02-15T11:09:53;19.38;;;10.05;;
37593;SDS011;23441;50.856;6.076;2023-02-15T11:12:32;19.27;;;9.75;;
37593;SDS011;23441;50.856;6.076;2023-02-15T11:15:11;14.43;;;8.75;;
37593;SDS011;23441;50.856;6.076;2023-02-15T11:17:51;17.00;;;9.35;;
37593;SDS011;23441;50.856;6.076;2023-02-15T11:23:07;16.20;;;10.07;;
37593;SDS011;23441;50.856;6.076;2023-02-15T11:25:47;19.85;;;10.70;;
37593;SDS011;23441;50.856;6.076;2023-02-15T11:28:36;19.23;;;10.30;;
37593;SDS011;23441;50.856;6.076;2023-02-15T11:31:12;18.35;;;10.75;;
37593;SDS011;23441;50.856;6.076;2023-02-15T11:33:57;19.73;;;10.15;;
37593;SDS011;23441;50.856;6.076;2023-02-15T11:36:37;18.38;;;11.05;;
37593;SDS011;23441;50.856;6.076;2023-02-15T11:39:09;18.25;;;9.88;;
37593;SDS011;23441;50.856;6.076;2023-02-15T11:41:39;19.95;;;9.85;;
37593;SDS011;23441;50.856;6.076;2023-02-15T11:44:16;20.52;;;9.85;;
37593;SDS011;23441;50.856;6.076;2023-02-15T11:46:43;15.95;;;9.43;;
37593;SDS011;23441;50.856;6.076;2023-02-15T11:51:46;17.10;;;9.38;;
37593;SDS011;23441;50.856;6.076;2023-02-15T11:54:15;21.27;;;11.13;;
37593;SDS011;23441;50.856;6.076;2023-02-15T11:56:42;19.38;;;10.02;;
37593;SDS011;23441;50.856;6.076;2023-02-15T11:59:13;21.90;;;10.88;;
37593;SDS011;23441;50.856;6.076;2023-02-15T12:01:52;21.85;;;12.18;;
37593;SDS011;23441;50.856;6.076;2023-02-15T12:07:04;23.58;;;13.25;;
37593;SDS011;23441;50.856;6.076;2023-02-15T12:12:32;21.13;;;11.50;;
37593;SDS011;23441;50.856;6.076;2023-02-15T12:15:04;22.02;;;12.35;;
37593;SDS011;23441;50.856;6.076;2023-02-15T12:17:32;22.45;;;12.88;;
37593;SDS011;23441;50.856;6.076;2023-02-15T12:20:01;21.83;;;12.18;;
37593;SDS011;23441;50.856;6.076;2023-02-15T12:22:33;30.95;;;16.98;;
37593;SDS011;23441;50.856;6.076;2023-02-15T12:25:02;28.52;;;17.52;;
37593;SDS011;23441;50.856;6.076;2023-02-15T12:27:45;31.52;;;19.00;;
37593;SDS011;23441;50.856;6.076;2023-02-15T12:32:48;33.80;;;18.42;;
37593;SDS011;23441;50.856;6.076;2023-02-15T12:35:39;34.22;;;18.05;;
37593;SDS011;23441;50.856;6.076;2023-02-15T12:40:35;33.33;;;18.55;;
37593;SDS011;23441;50.856;6.076;2023-02-15T12:43:02;27.65;;;18.52;;
37593;SDS011;23441;50.856;6.076;2023-02-15T12:45:34;27.63;;;17.63;;
37593;SDS011;23441;50.856;6.076;2023-02-15T12:48:15;31.73;;;18.33;;
37593;SDS011;23441;50.856;6.076;2023-02-15T12:50:45;30.65;;;18.10;;
37593;SDS011;23441;50.856;6.076;2023-02-15T12:53:14;32.65;;;17.73;;
37593;SDS011;23441;50.856;6.076;2023-02-15T12:58:28;30.90;;;17.52;;
37593;SDS011;23441;50.856;6.076;2023-02-15T13:03:58;33.75;;;17.70;;
37593;SDS011;23441;50.856;6.076;2023-02-15T13:06:25;29.25;;;17.23;;
37593;SDS011;23441;50.856;6.076;2023-02-15T13:09:14;30.67;;;18.58;;
37593;SDS011;23441;50.856;6.076;2023-02-15T13:11:44;33.22;;;18.77;;
37593;SDS011;23441;50.856;6.076;2023-02-15T13:14:22;30.05;;;18.20;;
37593;SDS011;23441;50.856;6.076;2023-02-15T13:16:56;29.73;;;18.33;;
37593;SDS011;23441;50.856;6.076;2023-02-15T13:19:33;33.60;;;17.65;;
37593;SDS011;23441;50.856;6.076;2023-02-15T13:22:03;36.00;;;18.02;;
37593;SDS011;23441;50.856;6.076;2023-02-15T13:24:33;31.63;;;18.70;;
37593;SDS011;23441;50.856;6.076;2023-02-15T13:27:03;33.28;;;18.25;;
37593;SDS011;23441;50.856;6.076;2023-02-15T13:29:31;30.50;;;18.42;;
37593;SDS011;23441;50.856;6.076;2023-02-15T13:32:46;32.40;;;18.08;;
37593;SDS011;23441;50.856;6.076;2023-02-15T13:34:50;33.20;;;19.05;;
37593;SDS011;23441;50.856;6.076;2023-02-15T13:37:27;32.05;;;17.35;;
37593;SDS011;23441;50.856;6.076;2023-02-15T13:40:31;37.53;;;19.85;;
37593;SDS011;23441;50.856;6.076;2023-02-15T13:43:05;29.77;;;18.98;;
37593;SDS011;23441;50.856;6.076;2023-02-15T14:05:01;35.22;;;19.00;;
37593;SDS011;23441;50.856;6.076;2023-02-15T14:10:38;36.17;;;19.05;;
37593;SDS011;23441;50.856;6.076;2023-02-15T14:32:52;29.83;;;17.08;;
37593;SDS011;23441;50.856;6.076;2023-02-15T14:35:24;31.63;;;18.00;;
37593;SDS011;23441;50.856;6.076;2023-02-15T14:49:29;32.00;;;17.00;;
37593;SDS011;23441;50.856;6.076;2023-02-15T14:52:10;28.88;;;17.58;;
37593;SDS011;23441;50.856;6.076;2023-02-15T14:59:45;30.00;;;17.75;;
37593;SDS011;23441;50.856;6.076;2023-02-15T15:08:19;32.47;;;17.70;;
37593;SDS011;23441;50.856;6.076;2023-02-15T15:13:54;36.05;;;18.88;;
37593;SDS011;23441;50.856;6.076;2023-02-15T15:16:29;38.70;;;19.58;;
37593;SDS011;23441;50.856;6.076;2023-02-15T15:22:19;34.45;;;17.83;;
37593;SDS011;23441;50.856;6.076;2023-02-15T15:24:53;30.55;;;17.13;;
37593;SDS011;23441;50.856;6.076;2023-02-15T15:27:38;30.00;;;17.10;;
37593;SDS011;23441;50.856;6.076;2023-02-15T15:49:07;34.25;;;17.27;;
37593;SDS011;23441;50.856;6.076;2023-02-15T15:51:37;33.83;;;17.67;;
37593;SDS011;23441;50.856;6.076;2023-02-15T15:54:05;30.67;;;17.27;;
37593;SDS011;23441;50.856;6.076;2023-02-15T15:56:37;32.15;;;17.50;;
37593;SDS011;23441;50.856;6.076;2023-02-15T15:59:07;34.42;;;17.90;;
37593;SDS011;23441;50.856;6.076;2023-02-15T16:01:45;30.67;;;17.42;;
37593;SDS011;23441;50.856;6.076;2023-02-15T16:04:12;32.95;;;18.42;;
37593;SDS011;23441;50.856;6.076;2023-02-15T16:06:46;33.35;;;17.27;;
37593;SDS011;23441;50.856;6.076;2023-02-15T16:09:17;32.00;;;17.58;;
37593;SDS011;23441;50.856;6.076;2023-02-15T16:11:48;32.42;;;18.00;;
37593;SDS011;23441;50.856;6.076;2023-02-15T16:14:20;36.03;;;19.23;;
37593;SDS011;23441;50.856;6.076;2023-02-15T16:16:57;31.77;;;17.77;;
37593;SDS011;23441;50.856;6.076;2023-02-15T16:19:35;33.78;;;18.65;;
37593;SDS011;23441;50.856;6.076;2023-02-15T16:22:07;38.35;;;19.70;;
37593;SDS011;23441;50.856;6.076;2023-02-15T16:29:57;38.22;;;19.25;;
37593;SDS011;23441;50.856;6.076;2023-02-15T16:32:24;43.83;;;19.45;;
37593;SDS011;23441;50.856;6.076;2023-02-15T16:37:18;39.47;;;19.85;;
37593;SDS011;23441;50.856;6.076;2023-02-15T16:39:48;38.53;;;19.73;;
37593;SDS011;23441;50.856;6.076;2023-02-15T16:42:14;41.67;;;20.23;;
37593;SDS011;23441;50.856;6.076;2023-02-15T16:44:42;38.35;;;20.17;;
37593;SDS011;23441;50.856;6.076;2023-02-15T16:47:31;43.10;;;21.05;;
37593;SDS011;23441;50.856;6.076;2023-02-15T16:49:59;40.97;;;20.77;;
37593;SDS011;23441;50.856;6.076;2023-02-15T16:52:27;40.90;;;20.40;;
37593;SDS011;23441;50.856;6.076;2023-02-15T16:54:55;44.45;;;21.52;;
37593;SDS011;23441;50.856;6.076;2023-02-15T16:57:30;48.67;;;22.08;;
37593;SDS011;23441;50.856;6.076;2023-02-15T17:00:03;41.40;;;21.63;;
37593;SDS011;23441;50.856;6.076;2023-02-15T17:02:42;42.42;;;21.13;;
37593;SDS011;23441;50.856;6.076;2023-02-15T17:08:13;40.53;;;21.77;;
37593;SDS011;23441;50.856;6.076;2023-02-15T17:13:28;43.70;;;21.65;;
37593;SDS011;23441;50.856;6.076;2023-02-15T17:18:32;44.78;;;23.98;;
37593;SDS011;23441;50.856;6.076;2023-02-15T17:21:19;40.90;;;21.50;;
37593;SDS011;23441;50.856;6.076;2023-02-15T17:23:49;39.63;;;20.60;;
37593;SDS011;23441;50.856;6.076;2023-02-15T17:26:29;42.17;;;21.15;;
37593;SDS011;23441;50.856;6.076;2023-02-15T17:28:58;45.78;;;21.40;;
37593;SDS011;23441;50.856;6.076;2023-02-15T17:31:46;44.10;;;20.75;;
37593;SDS011;23441;50.856;6.076;2023-02-15T17:37:13;42.65;;;22.40;;
37593;SDS011;23441;50.856;6.076;2023-02-15T17:39:53;40.17;;;21.77;;
37593;SDS011;23441;50.856;6.076;2023-02-15T17:42:20;40.35;;;21.02;;
37593;SDS011;23441;50.856;6.076;2023-02-15T17:44:45;44.08;;;23.73;;
37593;SDS011;23441;50.856;6.076;2023-02-15T17:47:18;42.97;;;24.30;;
37593;SDS011;23441;50.856;6.076;2023-02-15T17:49:45;50.00;;;26.25;;
37593;SDS011;23441;50.856;6.076;2023-02-15T17:52:14;49.08;;;25.67;;
37593;SDS011;23441;50.856;6.076;2023-02-15T17:54:41;57.35;;;31.83;;
37593;SDS011;23441;50.856;6.076;2023-02-15T17:57:26;55.70;;;27.80;;
37593;SDS011;23441;50.856;6.076;2023-02-15T17:59:53;57.85;;;30.88;;
37593;SDS011;23441;50.856;6.076;2023-02-15T18:02:37;48.65;;;25.15;;
37593;SDS011;23441;50.856;6.076;2023-02-15T18:05:21;47.53;;;25.63;;
37593;SDS011;23441;50.856;6.076;2023-02-15T18:08:15;42.75;;;22.83;;
37593;SDS011;23441;50.856;6.076;2023-02-15T18:11:01;46.75;;;25.02;;
37593;SDS011;23441;50.856;6.076;2023-02-15T18:13:46;51.72;;;26.23;;
37593;SDS011;23441;50.856;6.076;2023-02-15T18:16:16;48.10;;;25.00;;
37593;SDS011;23441;50.856;6.076;2023-02-15T18:18:46;47.13;;;24.90;;
37593;SDS011;23441;50.856;6.076;2023-02-15T18:21:12;40.85;;;22.25;;
37593;SDS011;23441;50.856;6.076;2023-02-15T18:23:38;45.40;;;22.95;;
37593;SDS011;23441;50.856;6.076;2023-02-15T18:26:04;51.22;;;25.88;;
37593;SDS011;23441;50.856;6.076;2023-02-15T18:28:31;56.05;;;26.08;;
37593;SDS011;23441;50.856;6.076;2023-02-15T18:30:57;49.88;;;24.67;;
37593;SDS011;23441;50.856;6.076;2023-02-15T18:33:34;44.17;;;23.67;;